createdAt,value
2017-10-24T00:01:33.702Z,72.80
2017-10-24T00:04:01.249Z,72.80
2017-10-24T00:06:28.824Z,72.70
2017-10-24T00:08:56.367Z,72.60
2017-10-24T00:11:24.693Z,72.40
2017-10-24T00:13:53.022Z,72.40
2017-10-24T00:16:20.555Z,72.30
2017-10-24T00:18:48.136Z,72.20
2017-10-24T00:21:15.692Z,72.20
2017-10-24T00:23:45.110Z,72.20
2017-10-24T00:26:14.961Z,72.00
2017-10-24T00:28:43.276Z,71.70
2017-10-24T00:31:10.855Z,71.60
2017-10-24T00:33:38.392Z,71.50
2017-10-24T00:36:05.955Z,71.50
2017-10-24T00:38:33.555Z,71.40
2017-10-24T00:41:01.105Z,71.50
2017-10-24T00:43:28.659Z,71.50
2017-10-24T00:45:56.271Z,71.60
2017-10-24T00:48:24.611Z,71.50
2017-10-24T00:50:52.186Z,71.40
2017-10-24T00:53:19.787Z,71.50
2017-10-24T00:55:47.495Z,71.40
2017-10-24T00:58:15.097Z,71.20
2017-10-24T01:00:42.692Z,71.40
2017-10-24T01:03:10.267Z,71.20
2017-10-24T01:05:37.918Z,72.20
2017-10-24T01:08:05.469Z,72.00
2017-10-24T01:10:33.081Z,71.50
2017-10-24T01:13:01.417Z,71.40
2017-10-24T01:15:29.004Z,71.30
2017-10-24T01:17:56.619Z,71.40
2017-10-24T01:20:24.235Z,71.30
2017-10-24T01:22:52.630Z,72.50
2017-10-24T01:25:21.034Z,71.60
2017-10-24T01:27:48.675Z,71.50
2017-10-24T01:30:16.253Z,71.40
2017-10-24T01:32:43.866Z,71.10
2017-10-24T01:35:12.057Z,71.00
2017-10-24T01:37:39.753Z,70.90
2017-10-24T01:40:07.351Z,71.00
2017-10-24T01:42:34.959Z,70.90
2017-10-24T01:45:02.605Z,71.10
2017-10-24T01:47:30.965Z,70.60
2017-10-24T01:49:58.591Z,70.60
2017-10-24T01:52:26.159Z,70.90
2017-10-24T01:54:53.776Z,70.90
2017-10-24T01:57:21.372Z,71.00
2017-10-24T01:59:48.970Z,70.90
2017-10-24T02:02:16.571Z,71.00
2017-10-24T02:04:44.139Z,71.10
2017-10-24T02:07:11.756Z,71.70
2017-10-24T02:09:40.154Z,71.40
2017-10-24T02:12:07.757Z,71.40
2017-10-24T02:14:35.343Z,71.40
2017-10-24T02:17:02.961Z,71.40
2017-10-24T02:19:30.569Z,71.80
2017-10-24T02:21:58.140Z,72.40
2017-10-24T02:24:26.519Z,73.90
2017-10-24T02:26:54.838Z,73.90
2017-10-24T02:29:22.393Z,73.80
2017-10-24T02:31:49.962Z,73.60
2017-10-24T02:34:17.511Z,74.30
2017-10-24T02:36:45.070Z,75.40
2017-10-24T02:39:12.653Z,76.10
2017-10-24T02:41:40.254Z,76.50
2017-10-24T02:44:08.583Z,77.00
2017-10-24T02:46:36.190Z,76.90
2017-10-24T02:49:04.519Z,77.10
2017-10-24T02:51:32.119Z,77.00
2017-10-24T02:53:59.685Z,77.20
2017-10-24T02:56:27.275Z,77.10
2017-10-24T02:58:54.861Z,77.20
2017-10-24T03:01:22.415Z,77.60
2017-10-24T03:03:49.994Z,77.90
2017-10-24T03:06:17.583Z,78.10
2017-10-24T03:08:45.940Z,78.20
2017-10-24T03:11:13.489Z,78.10
2017-10-24T03:13:41.075Z,78.10
2017-10-24T03:16:08.647Z,78.10
2017-10-24T03:18:36.993Z,78.60
2017-10-24T03:21:05.394Z,78.50
2017-10-24T03:23:32.963Z,78.80
2017-10-24T03:26:01.316Z,78.60
2017-10-24T03:28:28.868Z,78.60
2017-10-24T03:30:56.446Z,78.90
2017-10-24T03:33:24.007Z,78.90
2017-10-24T03:35:51.706Z,79.00
2017-10-24T03:38:19.256Z,78.80
2017-10-24T03:40:47.611Z,78.80
2017-10-24T03:43:15.949Z,78.90
2017-10-24T03:45:43.612Z,78.90
2017-10-24T03:48:11.177Z,78.90
2017-10-24T03:50:38.728Z,79.10
2017-10-24T03:53:06.307Z,79.10
2017-10-24T03:55:33.853Z,79.10
2017-10-24T03:58:01.420Z,79.10
2017-10-24T04:00:28.966Z,79.30
2017-10-24T04:02:56.531Z,79.00
2017-10-24T04:05:24.146Z,79.10
2017-10-24T04:07:52.451Z,79.00
2017-10-24T04:10:20.023Z,79.00
2017-10-24T04:12:47.601Z,79.20
2017-10-24T04:15:15.155Z,79.40
2017-10-24T04:17:42.704Z,79.60
2017-10-24T04:20:10.295Z,79.60
2017-10-24T04:22:37.861Z,79.50
2017-10-24T04:25:05.456Z,79.40
2017-10-24T04:27:33.041Z,79.50
2017-10-24T04:30:00.603Z,79.50
2017-10-24T04:32:28.266Z,79.30
2017-10-24T04:34:55.834Z,79.40
2017-10-24T04:37:23.418Z,79.40
2017-10-24T04:39:51.769Z,79.20
2017-10-24T04:42:19.376Z,79.20
2017-10-24T04:44:47.698Z,79.10
2017-10-24T04:47:15.268Z,79.10
2017-10-24T04:49:42.855Z,78.60
2017-10-24T04:52:10.429Z,78.80
2017-10-24T04:54:38.758Z,78.00
2017-10-24T04:57:06.312Z,77.90
2017-10-24T04:59:33.893Z,77.50
2017-10-24T05:02:01.451Z,77.50
2017-10-24T05:04:29.041Z,78.40
2017-10-24T05:06:56.598Z,78.60
2017-10-24T05:09:24.962Z,77.70
2017-10-24T05:11:52.525Z,77.60
2017-10-24T05:14:20.111Z,77.50
2017-10-24T05:16:48.428Z,76.40
2017-10-24T05:19:16.000Z,76.40
2017-10-24T05:21:43.591Z,76.20
2017-10-24T05:24:11.137Z,76.60
2017-10-24T05:26:38.725Z,76.00
2017-10-24T05:29:07.038Z,75.60
2017-10-24T05:31:34.607Z,75.60
2017-10-24T05:34:02.165Z,75.50
2017-10-24T05:36:29.736Z,75.50
2017-10-24T05:38:57.292Z,75.30
2017-10-24T05:41:24.878Z,75.30
2017-10-24T05:43:52.427Z,75.20
2017-10-24T05:46:19.981Z,75.20
2017-10-24T05:48:47.562Z,75.40
2017-10-24T05:51:15.115Z,76.00
2017-10-24T05:53:42.681Z,75.80
2017-10-24T05:56:10.236Z,75.80
2017-10-24T05:58:37.805Z,76.20
2017-10-24T06:01:05.352Z,76.10
2017-10-24T06:03:32.955Z,76.40
2017-10-24T06:06:00.505Z,76.90
2017-10-24T06:08:28.819Z,76.80
2017-10-24T06:10:56.423Z,76.80
2017-10-24T06:13:24.771Z,77.20
2017-10-24T06:15:53.122Z,77.40
2017-10-24T06:18:20.687Z,77.90
2017-10-24T06:20:48.285Z,77.20
2017-10-24T06:23:15.842Z,77.10
2017-10-24T06:25:43.426Z,77.60
2017-10-24T06:28:11.788Z,78.20
2017-10-24T06:30:39.379Z,78.20
2017-10-24T06:33:06.934Z,78.70
2017-10-24T06:35:35.247Z,78.20
2017-10-24T06:38:02.832Z,78.20
2017-10-24T06:40:30.387Z,79.00
2017-10-24T06:42:57.967Z,79.10
2017-10-24T06:45:25.535Z,79.30
2017-10-24T06:47:53.895Z,78.90
2017-10-24T06:50:21.485Z,78.90
2017-10-24T06:52:49.861Z,79.30
2017-10-24T06:55:18.188Z,79.40
2017-10-24T06:57:45.772Z,79.40
2017-10-24T07:00:13.311Z,79.20
2017-10-24T07:02:40.874Z,79.00
2017-10-24T07:05:08.487Z,79.20
2017-10-24T07:07:36.826Z,78.80
2017-10-24T07:10:04.929Z,78.80
2017-10-24T07:12:33.247Z,78.90
2017-10-24T07:15:00.838Z,78.90
2017-10-24T07:17:28.423Z,79.70
2017-10-24T07:19:56.751Z,80.00
2017-10-24T07:22:24.302Z,80.00
2017-10-24T07:24:51.866Z,80.30
2017-10-24T07:27:19.450Z,79.90
2017-10-24T07:29:47.006Z,79.90
2017-10-24T07:32:14.599Z,80.00
2017-10-24T07:34:42.923Z,79.80
2017-10-24T07:37:10.491Z,79.80
2017-10-24T07:39:38.049Z,80.10
2017-10-24T07:42:05.635Z,80.30
2017-10-24T07:44:33.175Z,80.20
2017-10-24T07:47:00.790Z,80.40
2017-10-24T07:49:28.352Z,80.80
2017-10-24T07:51:55.900Z,81.10
2017-10-24T07:54:23.468Z,82.00
2017-10-24T07:56:51.021Z,80.20
2017-10-24T07:59:18.617Z,80.40
2017-10-24T08:01:46.164Z,80.40
2017-10-24T08:04:13.744Z,83.10
2017-10-24T08:06:41.301Z,83.30
2017-10-24T08:09:08.891Z,79.90
2017-10-24T08:11:36.466Z,80.70
2017-10-24T08:14:04.821Z,77.40
2017-10-24T08:16:32.413Z,77.40
2017-10-24T08:19:00.764Z,74.80
2017-10-24T08:21:28.387Z,74.70
2017-10-24T08:23:55.944Z,71.40
2017-10-24T08:26:23.538Z,72.10
2017-10-24T08:28:51.883Z,69.90
2017-10-24T08:31:19.479Z,69.20
2017-10-24T08:33:47.043Z,68.60
2017-10-24T08:36:14.656Z,69.70
2017-10-24T08:38:42.220Z,69.80
2017-10-24T08:41:09.777Z,69.10
2017-10-24T08:43:37.367Z,68.70
2017-10-24T08:46:04.911Z,68.50
2017-10-24T08:48:32.486Z,67.20
2017-10-24T08:51:00.047Z,67.10
2017-10-24T08:53:27.622Z,68.10
2017-10-24T08:55:55.191Z,68.80
2017-10-24T08:58:22.790Z,68.00
2017-10-24T09:00:50.381Z,67.80
2017-10-24T09:03:17.969Z,67.70
2017-10-24T09:05:57.341Z,67.10
2017-10-24T09:12:04.356Z,66.90
2017-10-24T09:14:32.036Z,66.80
2017-10-24T09:19:57.627Z,67.30
2017-10-24T09:22:25.980Z,66.30
2017-10-24T09:24:53.547Z,66.20
2017-10-24T09:27:21.118Z,65.50
2017-10-24T09:29:49.458Z,66.00
2017-10-24T09:32:17.058Z,65.90
2017-10-24T09:34:45.390Z,68.30
2017-10-24T09:37:13.708Z,67.90
2017-10-24T09:39:42.078Z,68.60
2017-10-24T09:42:09.688Z,68.60
2017-10-24T09:44:37.262Z,68.20
2017-10-24T09:47:04.878Z,69.00
2017-10-24T09:49:33.226Z,68.40
2017-10-24T09:52:00.801Z,68.40
2017-10-24T09:54:29.180Z,66.00
2017-10-24T09:56:57.535Z,63.60
2017-10-24T09:59:39.975Z,63.40
2017-10-24T10:02:08.333Z,64.60
2017-10-24T10:04:35.919Z,64.60
2017-10-24T10:07:04.545Z,65.20
2017-10-24T10:09:32.092Z,64.00
2017-10-24T10:11:59.725Z,62.10
2017-10-24T10:14:28.045Z,60.00
2017-10-24T10:16:55.625Z,60.00
2017-10-24T10:19:23.250Z,60.90
2017-10-24T10:21:50.875Z,60.90
2017-10-24T10:27:12.994Z,59.50
2017-10-24T10:29:40.560Z,60.10
2017-10-24T10:32:08.179Z,60.30
2017-10-24T10:34:35.858Z,60.20
2017-10-24T10:37:03.421Z,59.90
2017-10-24T10:39:30.995Z,59.50
2017-10-24T10:41:58.557Z,59.60
2017-10-24T10:44:26.928Z,58.80
2017-10-24T10:46:54.501Z,58.70
2017-10-24T10:49:22.088Z,58.70
2017-10-24T10:51:50.411Z,58.10
2017-10-24T10:54:18.009Z,57.40
2017-10-24T10:56:45.600Z,58.10
2017-10-24T10:59:13.194Z,58.10
2017-10-24T11:01:40.797Z,57.90
2017-10-24T11:04:08.348Z,57.30
2017-10-24T11:06:35.929Z,55.60
2017-10-24T11:09:03.530Z,54.50
2017-10-24T11:11:31.091Z,52.40
2017-10-24T11:13:58.641Z,49.50
2017-10-24T11:16:26.233Z,50.40
2017-10-24T11:18:53.783Z,50.60
2017-10-24T11:21:21.351Z,52.30
2017-10-24T11:23:48.921Z,51.50
2017-10-24T11:26:16.500Z,52.00
2017-10-24T11:28:44.858Z,53.00
2017-10-24T11:31:12.404Z,53.00
2017-10-24T11:33:39.992Z,54.20
2017-10-24T11:36:07.560Z,54.00
2017-10-24T11:38:35.896Z,53.30
2017-10-24T11:41:03.439Z,53.30
2017-10-24T11:43:31.001Z,55.00
2017-10-24T11:45:58.639Z,52.90
2017-10-24T11:48:26.472Z,53.50
2017-10-24T11:50:54.053Z,53.50
2017-10-24T11:53:21.613Z,54.10
2017-10-24T11:55:49.962Z,54.40
2017-10-24T11:58:17.538Z,54.40
2017-10-24T12:00:45.901Z,53.50
2017-10-24T12:03:13.443Z,53.50
2017-10-24T12:05:41.018Z,55.60
2017-10-24T12:08:08.582Z,55.70
2017-10-24T12:10:36.159Z,55.90
2017-10-24T12:13:04.506Z,55.60
2017-10-24T12:15:32.060Z,55.50
2017-10-24T12:17:59.641Z,54.10
2017-10-24T12:20:27.189Z,53.50
2017-10-24T12:22:54.763Z,52.50
2017-10-24T12:25:23.129Z,53.00
2017-10-24T12:27:50.712Z,52.80
2017-10-24T12:30:19.037Z,51.90
2017-10-24T12:32:46.602Z,51.90
2017-10-24T12:35:14.213Z,52.30
2017-10-24T12:37:42.536Z,53.00
2017-10-24T12:40:10.152Z,52.90
2017-10-24T12:42:38.493Z,53.30
2017-10-24T12:45:20.936Z,52.70
2017-10-24T12:47:49.273Z,53.70
2017-10-24T12:50:19.386Z,53.70
2017-10-24T12:52:46.977Z,55.70
2017-10-24T12:55:14.571Z,52.60
2017-10-24T12:57:52.082Z,52.10
2017-10-24T13:00:19.673Z,52.00
2017-10-24T13:02:47.273Z,53.50
2017-10-24T13:05:15.614Z,52.20
2017-10-24T13:07:43.240Z,52.20
2017-10-24T13:10:10.794Z,52.10
2017-10-24T13:12:38.385Z,52.70
2017-10-24T13:15:05.983Z,51.70
2017-10-24T13:17:34.376Z,51.80
2017-10-24T13:20:02.710Z,52.20
2017-10-24T13:22:30.295Z,52.20
2017-10-24T13:24:58.639Z,52.30
2017-10-24T13:27:26.297Z,51.70
2017-10-24T13:29:53.884Z,51.80
2017-10-24T13:32:21.445Z,51.50
2017-10-24T13:34:49.029Z,51.70
2017-10-24T13:37:17.360Z,51.90
2017-10-24T13:39:44.941Z,51.90
2017-10-24T13:42:12.522Z,51.90
2017-10-24T13:44:40.857Z,52.10
2017-10-24T13:47:08.428Z,52.10
2017-10-24T13:49:35.993Z,52.60
2017-10-24T13:52:03.583Z,52.80
2017-10-24T13:54:31.900Z,53.00
2017-10-24T13:56:59.486Z,52.90
2017-10-24T13:59:27.061Z,53.40
2017-10-24T14:01:54.656Z,54.10
2017-10-24T14:04:27.848Z,53.50
2017-10-24T14:07:01.218Z,53.70
2017-10-24T14:09:35.127Z,57.10
2017-10-24T14:12:03.500Z,56.40
2017-10-24T14:14:31.822Z,55.40
2017-10-24T14:16:59.373Z,55.30
2017-10-24T14:19:26.964Z,54.10
2017-10-24T14:21:54.499Z,53.80
2017-10-24T14:24:22.083Z,53.00
2017-10-24T14:26:50.625Z,53.60
2017-10-24T14:29:18.213Z,53.30
2017-10-24T14:31:45.748Z,54.30
2017-10-24T14:34:13.347Z,53.70
2017-10-24T14:36:42.497Z,53.10
2017-10-24T14:39:11.633Z,53.80
2017-10-24T14:41:39.205Z,53.90
2017-10-24T14:44:06.780Z,53.50
2017-10-24T14:46:35.887Z,53.70
2017-10-24T14:49:04.198Z,56.20
2017-10-24T14:51:31.778Z,56.20
2017-10-24T14:53:59.343Z,54.50
2017-10-24T14:56:27.428Z,55.10
2017-10-24T14:58:55.298Z,55.80
2017-10-24T15:01:22.862Z,55.70
2017-10-24T15:03:50.424Z,58.30
2017-10-24T15:06:17.973Z,58.20
2017-10-24T15:08:45.575Z,57.70
2017-10-24T15:11:13.177Z,58.20
2017-10-24T15:13:40.739Z,59.90
2017-10-24T15:16:08.318Z,59.50
2017-10-24T15:18:35.880Z,59.80
2017-10-24T15:21:03.444Z,60.90
2017-10-24T15:23:31.022Z,61.90
2017-10-24T15:25:59.366Z,62.50
2017-10-24T15:28:26.989Z,62.50
2017-10-24T15:30:54.575Z,63.10
2017-10-24T15:33:22.143Z,63.20
2017-10-24T15:35:49.735Z,63.20
2017-10-24T15:38:18.071Z,64.50
2017-10-24T15:40:45.663Z,64.50
2017-10-24T15:43:14.521Z,64.60
2017-10-24T15:45:44.738Z,64.50
2017-10-24T15:48:12.337Z,64.50
2017-10-24T15:50:41.168Z,64.90
2017-10-24T15:53:08.732Z,65.20
2017-10-24T15:55:36.275Z,65.50
2017-10-24T15:58:04.604Z,65.80
2017-10-24T16:00:33.129Z,65.80
2017-10-24T16:03:02.602Z,66.20
2017-10-24T16:05:31.453Z,66.20
2017-10-24T16:07:59.339Z,66.90
2017-10-24T16:10:28.020Z,67.70
2017-10-24T16:12:55.884Z,66.80
2017-10-24T16:15:25.097Z,67.00
2017-10-24T16:17:52.948Z,67.00
2017-10-24T16:20:23.176Z,67.20
2017-10-24T16:22:51.224Z,67.10
2017-10-24T16:25:19.346Z,67.70
2017-10-24T16:27:47.395Z,68.00
2017-10-24T16:30:15.039Z,68.00
2017-10-24T16:32:42.604Z,67.90
2017-10-24T16:35:11.013Z,67.90
2017-10-24T16:37:39.421Z,67.80
2017-10-24T16:40:07.814Z,67.90
2017-10-24T16:42:36.153Z,67.80
2017-10-24T16:45:04.484Z,67.80
2017-10-24T16:47:33.656Z,68.10
2017-10-24T16:50:02.762Z,68.10
2017-10-24T16:52:32.026Z,68.00
2017-10-24T16:55:01.877Z,68.00
2017-10-24T16:57:29.516Z,68.00
2017-10-24T17:00:06.826Z,68.80
2017-10-24T17:02:34.660Z,68.70
2017-10-24T17:05:02.204Z,68.60
2017-10-24T17:07:29.852Z,68.90
2017-10-24T17:09:58.216Z,68.20
2017-10-24T17:12:25.806Z,68.20
2017-10-24T17:14:53.409Z,67.70
2017-10-24T17:17:21.419Z,68.00
2017-10-24T17:19:50.296Z,67.80
2017-10-24T17:22:18.326Z,67.80
2017-10-24T17:24:45.939Z,68.00
2017-10-24T17:27:13.843Z,68.30
2017-10-24T17:29:41.426Z,68.30
2017-10-24T17:32:08.972Z,68.30
2017-10-24T17:34:37.329Z,68.10
2017-10-24T17:37:04.910Z,68.10
2017-10-24T17:39:33.220Z,67.80
2017-10-24T17:42:00.824Z,67.70
2017-10-24T17:44:28.381Z,67.90
2017-10-24T17:46:55.953Z,67.80
2017-10-24T17:49:23.515Z,67.90
2017-10-24T17:51:51.119Z,67.80
2017-10-24T17:54:18.821Z,68.30
2017-10-24T17:56:46.429Z,67.70
2017-10-24T17:59:13.986Z,67.40
2017-10-24T18:01:42.016Z,67.60
2017-10-24T18:04:09.604Z,68.20
2017-10-24T18:06:37.934Z,68.50
2017-10-24T18:09:05.584Z,68.50
2017-10-24T18:11:33.129Z,68.40
2017-10-24T18:14:00.708Z,68.00
2017-10-24T18:16:28.269Z,67.70
2017-10-24T18:18:55.862Z,67.90
2017-10-24T18:21:23.431Z,67.70
2017-10-24T18:23:51.991Z,67.50
2017-10-24T18:26:19.671Z,67.50
2017-10-24T18:28:47.236Z,67.60
2017-10-24T18:31:15.574Z,67.70
2017-10-24T18:33:43.220Z,67.60
2017-10-24T18:36:10.811Z,68.10
2017-10-24T18:38:38.383Z,68.40
2017-10-24T18:41:05.968Z,69.50
2017-10-24T18:43:33.549Z,69.60
2017-10-24T18:46:01.141Z,70.20
2017-10-24T18:48:28.761Z,70.50
2017-10-24T18:50:56.373Z,70.60
2017-10-24T18:53:23.972Z,70.70
2017-10-24T18:55:51.568Z,70.50
2017-10-24T18:58:19.157Z,71.80
2017-10-24T19:00:46.746Z,71.30
2017-10-24T19:03:15.126Z,72.30
2017-10-24T19:05:43.510Z,72.70
2017-10-24T19:08:11.105Z,72.70
2017-10-24T19:10:38.685Z,72.10
2017-10-24T19:13:06.263Z,72.10
2017-10-24T19:15:34.606Z,72.80
2017-10-24T19:18:02.166Z,72.70
2017-10-24T19:20:29.756Z,72.10
2017-10-24T19:22:57.327Z,71.50
2017-10-24T19:25:25.692Z,71.30
2017-10-24T19:27:53.270Z,71.20
2017-10-24T19:30:21.647Z,71.60
2017-10-24T19:32:50.000Z,72.50
2017-10-24T19:35:17.585Z,72.50
2017-10-24T19:37:45.963Z,72.80
2017-10-24T19:40:13.559Z,72.80
2017-10-24T19:42:41.137Z,72.70
2017-10-24T19:45:08.672Z,72.40
2017-10-24T19:47:36.268Z,72.00
2017-10-24T19:50:03.839Z,72.60
2017-10-24T19:52:31.411Z,73.00
2017-10-24T19:54:58.955Z,73.20
2017-10-24T19:57:26.531Z,72.80
2017-10-24T19:59:54.090Z,73.00
2017-10-24T20:02:21.645Z,72.40
2017-10-24T20:04:49.239Z,72.60
2017-10-24T20:07:16.801Z,73.00
2017-10-24T20:09:45.207Z,72.60
2017-10-24T20:12:12.789Z,72.80
2017-10-24T20:14:40.367Z,72.40
2017-10-24T20:17:07.938Z,72.40
2017-10-24T20:19:35.523Z,72.70
2017-10-24T20:22:03.076Z,73.20
2017-10-24T20:24:31.426Z,72.70
2017-10-24T20:26:58.977Z,72.60
2017-10-24T20:29:26.551Z,73.10
2017-10-24T20:31:54.119Z,73.20
2017-10-24T20:34:22.459Z,73.60
2017-10-24T20:36:50.061Z,73.60
2017-10-24T20:39:18.391Z,73.90
2017-10-24T20:41:45.961Z,73.80
2017-10-24T20:44:13.521Z,73.20
2017-10-24T20:46:41.113Z,73.30
2017-10-24T20:49:09.433Z,73.20
2017-10-24T20:51:36.983Z,73.10
2017-10-24T20:54:04.541Z,73.80
2017-10-24T20:56:32.089Z,73.40
2017-10-24T20:58:59.647Z,72.70
2017-10-24T21:01:27.213Z,72.80
2017-10-24T21:03:54.819Z,72.80
2017-10-24T21:06:22.373Z,73.70
2017-10-24T21:08:49.961Z,73.60
2017-10-24T21:11:17.543Z,73.20
2017-10-24T21:13:45.883Z,73.00
2017-10-24T21:16:13.450Z,73.00
2017-10-24T21:18:41.009Z,72.90
2017-10-24T21:21:08.579Z,73.20
2017-10-24T21:23:36.145Z,73.00
2017-10-24T21:26:04.480Z,73.30
2017-10-24T21:28:32.030Z,73.20
2017-10-24T21:30:59.619Z,73.00
2017-10-24T21:33:27.169Z,73.50
2017-10-24T21:35:54.753Z,73.20
2017-10-24T21:38:22.316Z,73.00
2017-10-24T21:40:49.865Z,73.20
2017-10-24T21:43:18.225Z,73.50
2017-10-24T21:45:45.798Z,73.50
2017-10-24T21:48:13.386Z,73.70
2017-10-24T21:50:41.701Z,73.30
2017-10-24T21:53:09.288Z,73.20
2017-10-24T21:55:36.837Z,73.30
2017-10-24T21:58:04.441Z,73.80
2017-10-24T22:00:38.611Z,73.30
2017-10-24T22:03:06.184Z,73.30
2017-10-24T22:05:33.753Z,73.50
2017-10-24T22:08:01.297Z,73.60
2017-10-24T22:10:28.874Z,73.90
2017-10-24T22:12:56.425Z,74.10
2017-10-24T22:15:24.012Z,74.30
2017-10-24T22:17:52.333Z,73.50
2017-10-24T22:20:19.927Z,73.50
2017-10-24T22:22:47.481Z,73.10
2017-10-24T22:25:15.105Z,73.70
2017-10-24T22:27:42.643Z,73.60
2017-10-24T22:30:10.207Z,73.70
2017-10-24T22:32:37.790Z,73.70
2017-10-24T22:35:05.352Z,73.80
2017-10-24T22:37:32.929Z,73.80
2017-10-24T22:40:00.475Z,73.80
2017-10-24T22:42:28.041Z,74.00
2017-10-24T22:44:55.590Z,73.90
2017-10-24T22:47:23.156Z,74.10
2017-10-24T22:49:50.729Z,74.30
2017-10-24T22:52:18.301Z,74.00
2017-10-24T22:54:45.850Z,74.60
2017-10-24T22:57:13.430Z,73.60
2017-10-24T22:59:41.004Z,74.00
2017-10-24T23:02:09.306Z,73.80
2017-10-24T23:04:36.909Z,73.80
2017-10-24T23:07:04.448Z,74.20
2017-10-24T23:09:32.054Z,74.00
2017-10-24T23:12:00.385Z,73.20
2017-10-24T23:14:27.961Z,73.10
2017-10-24T23:16:56.272Z,73.40
2017-10-24T23:19:25.322Z,73.60
2017-10-24T23:21:52.889Z,73.60
2017-10-24T23:24:20.436Z,73.40
2017-10-24T23:26:48.025Z,73.60
2017-10-24T23:29:15.601Z,74.30
2017-10-24T23:31:43.937Z,74.70
2017-10-24T23:34:11.510Z,74.10
2017-10-24T23:36:39.091Z,73.90
2017-10-24T23:39:07.431Z,74.90
2017-10-24T23:41:35.811Z,74.80
2017-10-24T23:44:03.376Z,74.80
2017-10-24T23:46:30.934Z,74.80
2017-10-24T23:48:58.522Z,74.40
2017-10-24T23:51:26.069Z,74.30
2017-10-24T23:53:53.637Z,74.40
2017-10-24T23:56:21.204Z,74.00
2017-10-24T23:58:48.764Z,73.90
